Time;durP1;ratioP1;P1;durP2;ratioP2;P2;SDS_P1;SDS_P2;PMS_P1;PMS_P2;Temp;Humidity;BMP_temperature;BMP_pressure;BME280_temperature;BME280_humidity;BME280_pressure;Samples;Min_cycle;Max_cycle;Signal;HPM_P1;HPM_P2
2022/07/16 00:01:26;;;;;;;;;;;;;;;27.65;42.30;99712.56;2050959;28;19944;-66
2022/07/16 00:02:27;;;;;;;;;;;;;;;27.64;42.52;99710.03;2066857;28;19924;-66
2022/07/16 00:03:27;;;;;;;;;;;;;;;27.64;42.44;99705.34;2063248;28;20493;-66
2022/07/16 00:04:27;;;;;;;;;;;;;;;27.63;42.39;99709.16;2066281;28;20280;-66
2022/07/16 00:05:28;;;;;;;;;;;;;;;27.63;42.22;99711.94;2059225;28;19913;-65
2022/07/16 00:06:29;;;;;;;;;;;;;;;27.64;42.27;99710.88;2067754;28;20712;-66
2022/07/16 00:07:29;;;;;;;;;;;;;;;27.64;42.19;99713.66;2060347;28;19913;-66
2022/07/16 00:08:29;;;;;;;;;;;;;;;27.64;42.31;99712.81;2066861;28;19976;-66
2022/07/16 00:09:29;;;;;;;;;;;;;;;27.64;42.31;99710.88;2068050;28;20016;-66
2022/07/16 00:10:30;;;;;;;;;;;;;;;27.64;42.24;99712.81;2068341;28;19924;-66
2022/07/16 00:11:30;;;;;;;;;;;;;;;27.63;42.14;99703.63;2067447;28;19928;-66
2022/07/16 00:12:30;;;;;;;;;;;;;;;27.63;42.14;99703.63;2067214;28;19917;-66
2022/07/16 00:13:31;;;;;;;;;;;;;;;27.64;42.25;99710.88;2066292;28;19928;-66
2022/07/16 00:14:31;;;;;;;;;;;;;;;27.63;42.08;99703.63;2067676;28;19919;-66
2022/07/16 00:15:31;;;;;;;;;;;;;;;27.64;42.14;99704.50;2068817;28;19990;-66
2022/07/16 00:16:32;;;;;;;;;;;;;;;27.63;42.22;99703.63;2067659;28;21628;-66
2022/07/16 00:17:32;;;;;;;;;;;;;;;27.63;42.14;99703.63;2064833;28;19943;-66
2022/07/16 00:19:52;;;;;;;;;;;;;;;27.63;42.10;99695.31;2061229;28;19910;-65
2022/07/16 00:20:52;;;;;;;;;;;;;;;27.61;42.26;99694.72;2063705;28;19914;-66
2022/07/16 00:21:54;;;;;;;;;;;;;;;27.62;42.29;99690.03;2062504;28;19999;-66
2022/07/16 00:22:54;;;;;;;;;;;;;;;27.61;42.23;99694.72;2066304;28;19925;-66
2022/07/16 00:23:54;;;;;;;;;;;;;;;27.61;42.32;99686.41;2064418;28;19921;-65
2022/07/16 00:24:55;;;;;;;;;;;;;;;27.61;42.43;99689.19;2067019;28;19917;-66
2022/07/16 00:25:55;;;;;;;;;;;;;;;27.61;42.35;99691.94;2066266;28;20351;-65
2022/07/16 00:26:55;;;;;;;;;;;;;;;27.60;42.40;99693.00;2066476;28;19917;-65
2022/07/16 00:27:56;;;;;;;;;;;;;;;27.60;42.38;99693.00;2066016;28;19917;-66
2022/07/16 00:28:56;;;;;;;;;;;;;;;27.61;42.42;99688.31;2064169;28;19925;-66
2022/07/16 00:29:56;;;;;;;;;;;;;;;27.61;42.50;99694.72;2066588;28;19993;-65
2022/07/16 00:30:56;;;;;;;;;;;;;;;27.60;42.46;99687.47;2065139;28;19917;-66
2022/07/16 00:31:57;;;;;;;;;;;;;;;27.61;42.36;99694.72;2065508;28;20344;-66
2022/07/16 00:32:57;;;;;;;;;;;;;;;27.61;42.35;99693.84;2064829;28;19917;-65
2022/07/16 00:33:57;;;;;;;;;;;;;;;27.61;42.61;99689.19;2067818;28;19956;-66
2022/07/16 00:34:58;;;;;;;;;;;;;;;27.61;42.40;99688.31;2067105;28;19921;-66
2022/07/16 00:35:59;;;;;;;;;;;;;;;27.60;42.43;99686.59;2065965;28;19918;-66
2022/07/16 00:36:59;;;;;;;;;;;;;;;27.61;42.42;99685.53;2063738;28;20415;-66
2022/07/16 00:37:59;;;;;;;;;;;;;;;27.60;42.37;99679.16;2073472;28;20127;-66
2022/07/16 00:39:00;;;;;;;;;;;;;;;27.61;42.67;99689.19;2074242;28;20007;-66
2022/07/16 00:40:00;;;;;;;;;;;;;;;27.60;42.41;99687.47;2067076;28;20015;-66
2022/07/16 00:41:00;;;;;;;;;;;;;;;27.61;42.64;99683.63;2067921;28;19943;-66
2022/07/16 00:42:01;;;;;;;;;;;;;;;27.61;42.67;99683.63;2067716;28;19917;-66
2022/07/16 00:43:01;;;;;;;;;;;;;;;27.61;42.68;99686.41;2065720;28;19928;-66
2022/07/16 00:44:03;;;;;;;;;;;;;;;27.61;42.70;99683.63;2059931;28;20057;-65
2022/07/16 00:45:04;;;;;;;;;;;;;;;27.61;42.65;99686.41;2070307;28;20403;-66
2022/07/16 00:46:04;;;;;;;;;;;;;;;27.60;42.54;99681.91;2071113;28;19921;-66
2022/07/16 00:47:05;;;;;;;;;;;;;;;27.61;42.49;99680.88;2066329;28;19921;-65
2022/07/16 00:48:05;;;;;;;;;;;;;;;27.61;42.51;99680.88;2061253;28;19917;-66
2022/07/16 00:49:06;;;;;;;;;;;;;;;27.61;42.64;99683.63;2064760;28;19928;-66
2022/07/16 00:50:06;;;;;;;;;;;;;;;27.61;42.37;99680.00;2061993;28;19917;-66
2022/07/16 00:51:07;;;;;;;;;;;;;;;27.61;42.65;99678.09;2062086;28;19971;-66
2022/07/16 00:52:07;;;;;;;;;;;;;;;27.60;42.61;99681.91;2062489;28;19921;-66
2022/07/16 00:53:09;;;;;;;;;;;;;;;27.61;42.47;99678.09;2061362;28;19917;-66
2022/07/16 00:54:09;;;;;;;;;;;;;;;27.60;42.46;99681.91;2062987;28;19924;-66
2022/07/16 00:55:09;;;;;;;;;;;;;;;27.61;42.66;99680.00;2066106;28;20177;-66
2022/07/16 00:56:11;;;;;;;;;;;;;;;27.60;42.42;99676.38;2059856;28;20183;-65
2022/07/16 00:57:12;;;;;;;;;;;;;;;27.61;42.32;99677.22;2064716;28;20110;-65
2022/07/16 00:58:13;;;;;;;;;;;;;;;27.60;42.29;99673.63;2066827;28;20384;-66
2022/07/16 00:59:14;;;;;;;;;;;;;;;27.60;42.20;99675.53;2059509;28;20459;-66
2022/07/16 01:00:14;;;;;;;;;;;;;;;27.60;42.35;99672.78;2067240;28;19960;-66
2022/07/16 01:01:16;;;;;;;;;;;;;;;27.59;42.16;99677.47;2067683;28;19909;-66
2022/07/16 01:02:16;;;;;;;;;;;;;;;27.59;42.15;99680.22;2066902;28;20481;-66
2022/07/16 01:03:16;;;;;;;;;;;;;;;27.59;42.05;99680.22;2063909;28;20359;-66
2022/07/16 01:04:17;;;;;;;;;;;;;;;27.59;42.21;99674.69;2074972;28;20449;-65
2022/07/16 01:05:17;;;;;;;;;;;;;;;27.58;42.01;99679.38;2070086;28;19995;-66
2022/07/16 01:06:18;;;;;;;;;;;;;;;27.58;42.02;99673.84;2063761;28;20427;-66
2022/07/16 01:07:18;;;;;;;;;;;;;;;27.58;42.12;99675.75;2064658;28;19917;-65
2022/07/16 01:08:19;;;;;;;;;;;;;;;27.58;42.17;99676.63;2067648;28;20411;-64
2022/07/16 01:09:20;;;;;;;;;;;;;;;27.58;42.07;99672.97;2067370;28;19921;-66
2022/07/16 01:10:21;;;;;;;;;;;;;;;27.57;42.24;99674.06;2065428;28;19927;-66
2022/07/16 01:11:21;;;;;;;;;;;;;;;27.57;42.17;99666.59;2068117;28;19921;-66
2022/07/16 01:12:21;;;;;;;;;;;;;;;27.57;42.31;99674.91;2065103;28;19909;-66
2022/07/16 01:13:22;;;;;;;;;;;;;;;27.57;42.20;99671.28;2068315;28;19956;-66
2022/07/16 01:14:24;;;;;;;;;;;;;;;27.57;42.25;99671.28;2062078;28;19913;-66
2022/07/16 01:15:24;;;;;;;;;;;;;;;27.56;42.31;99666.78;2064461;28;20003;-66
2022/07/16 01:16:25;;;;;;;;;;;;;;;27.57;42.51;99668.50;2062798;28;19910;-66
2022/07/16 01:17:25;;;;;;;;;;;;;;;27.57;42.31;99665.75;2065905;28;21035;-66
2022/07/16 01:18:26;;;;;;;;;;;;;;;27.57;42.43;99665.75;2062022;28;19909;-66
2022/07/16 01:19:26;;;;;;;;;;;;;;;27.56;42.18;99664.91;2063889;28;19925;-66
2022/07/16 01:20:26;;;;;;;;;;;;;;;27.56;42.27;99664.91;2061939;28;19917;-66
2022/07/16 01:21:26;;;;;;;;;;;;;;;27.56;42.23;99669.56;2068027;28;19966;-66
2022/07/16 01:22:27;;;;;;;;;;;;;;;27.56;42.24;99661.25;2065501;28;20839;-66
2022/07/16 01:23:27;;;;;;;;;;;;;;;27.56;42.38;99664.91;2066969;28;20399;-65
2022/07/16 01:24:27;;;;;;;;;;;;;;;27.56;42.24;99664.91;2060370;28;19921;-66
2022/07/16 01:25:28;;;;;;;;;;;;;;;27.57;42.17;99665.75;2065158;28;20001;-66
2022/07/16 01:26:28;;;;;;;;;;;;;;;27.57;42.13;99662.97;2063573;28;19909;-66
2022/07/16 01:27:28;;;;;;;;;;;;;;;27.56;42.30;99664.03;2068135;28;19917;-66
2022/07/16 01:28:29;;;;;;;;;;;;;;;27.56;42.29;99659.38;2063390;28;20004;-66
2022/07/16 01:29:29;;;;;;;;;;;;;;;27.56;42.29;99659.38;2068999;28;19925;-66
2022/07/16 01:30:29;;;;;;;;;;;;;;;27.57;42.50;99665.75;2066244;28;19917;-65
2022/07/16 01:31:30;;;;;;;;;;;;;;;27.56;42.63;99662.13;2064978;28;20007;-65
2022/07/16 01:32:30;;;;;;;;;;;;;;;27.57;42.42;99662.97;2060824;28;19924;-65
2022/07/16 01:33:32;;;;;;;;;;;;;;;27.56;42.46;99655.72;2062383;28;19917;-66
2022/07/16 01:34:33;;;;;;;;;;;;;;;27.56;42.57;99664.91;2062406;28;19963;-66
2022/07/16 01:35:33;;;;;;;;;;;;;;;27.56;42.50;99664.91;2067409;28;19948;-66
2022/07/16 01:36:34;;;;;;;;;;;;;;;27.56;42.35;99662.13;2060995;28;19951;-65
2022/07/16 01:37:34;;;;;;;;;;;;;;;27.56;42.44;99659.38;2060126;28;19933;-66
2022/07/16 01:38:36;;;;;;;;;;;;;;;27.55;42.38;99656.81;2061378;28;19909;-66
2022/07/16 01:39:38;;;;;;;;;;;;;;;27.56;42.37;99664.03;2063295;28;20375;-66
2022/07/16 01:40:38;;;;;;;;;;;;;;;27.56;42.47;99666.78;2060236;28;19917;-65
2022/07/16 01:41:38;;;;;;;;;;;;;;;27.55;42.44;99663.19;2061959;28;19924;-66
2022/07/16 01:42:41;;;;;;;;;;;;;;;27.56;42.39;99664.03;2063893;28;19967;-65
2022/07/16 01:43:42;;;;;;;;;;;;;;;27.55;42.66;99665.09;2067748;28;19920;-66
2022/07/16 01:44:42;;;;;;;;;;;;;;;27.55;42.53;99668.72;2070091;28;19925;-65
2022/07/16 01:45:43;;;;;;;;;;;;;;;27.55;42.48;99667.88;2068096;28;19998;-66
2022/07/16 01:46:43;;;;;;;;;;;;;;;27.55;42.45;99667.88;2075356;28;19963;-66
2022/07/16 01:47:43;;;;;;;;;;;;;;;27.54;42.45;99664.25;2070117;28;20457;-65
2022/07/16 01:48:44;;;;;;;;;;;;;;;27.54;42.38;99672.56;2067487;28;19921;-65
2022/07/16 01:49:45;;;;;;;;;;;;;;;27.54;42.52;99666.19;2066103;28;19917;-66
2022/07/16 01:50:46;;;;;;;;;;;;;;;27.54;42.61;99663.41;2068291;28;19971;-65
2022/07/16 01:51:46;;;;;;;;;;;;;;;27.52;42.67;99669.16;2067477;28;19944;-65
2022/07/16 01:52:46;;;;;;;;;;;;;;;27.52;42.52;99669.16;2066267;28;19940;-66
2022/07/16 01:53:47;;;;;;;;;;;;;;;27.52;42.60;99665.56;2065358;28;19956;-65
2022/07/16 01:54:48;;;;;;;;;;;;;;;27.52;42.58;99673.84;2061784;28;19970;-66
2022/07/16 01:55:49;;;;;;;;;;;;;;;27.52;42.58;99673.84;2065814;28;19921;-65
2022/07/16 01:56:49;;;;;;;;;;;;;;;27.52;42.73;99673.84;2064277;28;19956;-66
2022/07/16 01:57:49;;;;;;;;;;;;;;;27.51;42.64;99670.25;2067456;28;20344;-66
2022/07/16 01:58:49;;;;;;;;;;;;;;;27.52;42.73;99673.84;2067768;28;20205;-66
2022/07/16 01:59:50;;;;;;;;;;;;;;;27.52;42.71;99673.84;2062685;28;19925;-65
2022/07/16 02:00:50;;;;;;;;;;;;;;;27.51;42.49;99672.13;2066237;28;19924;-66
2022/07/16 02:01:50;;;;;;;;;;;;;;;27.51;42.79;99672.13;2069968;28;19917;-66
2022/07/16 02:02:51;;;;;;;;;;;;;;;27.50;42.47;99664.91;2064302;28;20003;-66
2022/07/16 02:03:51;;;;;;;;;;;;;;;27.50;42.52;99662.97;2067025;28;19921;-66
2022/07/16 02:04:52;;;;;;;;;;;;;;;27.50;42.48;99670.44;2065266;28;19913;-66
2022/07/16 02:05:52;;;;;;;;;;;;;;;27.50;42.56;99665.75;2062624;28;19920;-66
2022/07/16 02:06:52;;;;;;;;;;;;;;;27.51;42.47;99672.13;2068361;28;19917;-66
2022/07/16 02:07:53;;;;;;;;;;;;;;;27.52;42.52;99671.09;2069317;28;20687;-66
2022/07/16 02:08:54;;;;;;;;;;;;;;;27.51;42.61;99672.13;2064630;28;20532;-66
2022/07/16 02:09:54;;;;;;;;;;;;;;;27.51;42.69;99667.47;2068480;28;19921;-66
2022/07/16 02:10:55;;;;;;;;;;;;;;;27.52;42.50;99668.31;2068498;28;19909;-66
2022/07/16 02:11:55;;;;;;;;;;;;;;;27.51;42.75;99667.47;2069913;28;19924;-66
2022/07/16 02:12:55;;;;;;;;;;;;;;;27.51;42.63;99661.94;2071398;28;19987;-66
2022/07/16 02:13:55;;;;;;;;;;;;;;;27.52;42.55;99668.31;2064901;28;19975;-66
2022/07/16 02:14:56;;;;;;;;;;;;;;;27.53;42.42;99664.47;2071145;28;19914;-65
2022/07/16 02:15:56;;;;;;;;;;;;;;;27.52;42.69;99662.78;2068638;28;19916;-66
2022/07/16 02:16:56;;;;;;;;;;;;;;;27.52;42.61;99665.56;2061185;28;19921;-66
2022/07/16 02:17:57;;;;;;;;;;;;;;;27.51;42.55;99666.59;2067314;28;19937;-66
2022/07/16 02:18:57;;;;;;;;;;;;;;;27.52;42.54;99665.56;2063442;28;19909;-65
2022/07/16 02:19:57;;;;;;;;;;;;;;;27.52;42.45;99662.78;2064205;28;19924;-66
2022/07/16 02:20:58;;;;;;;;;;;;;;;27.52;42.60;99658.09;2064251;28;19956;-66
2022/07/16 02:21:59;;;;;;;;;;;;;;;27.52;42.49;99662.78;2060012;28;19914;-66
2022/07/16 02:22:59;;;;;;;;;;;;;;;27.51;42.69;99661.06;2060699;28;20387;-66
2022/07/16 02:24:00;;;;;;;;;;;;;;;27.51;42.62;99658.28;2062611;28;20305;-66
2022/07/16 02:25:03;;;;;;;;;;;;;;;27.50;42.63;99659.38;2065736;28;19927;-66
2022/07/16 02:26:03;;;;;;;;;;;;;;;27.51;42.73;99664.72;2073578;28;20366;-65
2022/07/16 02:27:04;;;;;;;;;;;;;;;27.51;42.83;99661.94;2064703;28;20300;-66
2022/07/16 02:28:07;;;;;;;;;;;;;;;27.51;42.77;99656.41;2065754;28;20709;-66
2022/07/16 02:29:07;;;;;;;;;;;;;;;27.50;42.53;99653.84;2061702;28;20357;-66
2022/07/16 02:30:08;;;;;;;;;;;;;;;27.50;42.65;99651.06;2064201;28;19917;-66
2022/07/16 02:31:08;;;;;;;;;;;;;;;27.50;42.56;99656.59;2066310;28;19917;-66
2022/07/16 02:32:08;;;;;;;;;;;;;;;27.49;42.74;99649.38;2066408;28;20692;-66
2022/07/16 02:33:09;;;;;;;;;;;;;;;27.48;42.64;99653.19;2066452;28;19933;-66
2022/07/16 02:34:10;;;;;;;;;;;;;;;27.50;42.77;99656.59;2060214;28;20035;-66
2022/07/16 02:35:10;;;;;;;;;;;;;;;27.49;42.67;99654.91;2064244;28;20368;-66
2022/07/16 02:36:10;;;;;;;;;;;;;;;27.47;42.71;99646.81;2059597;28;20394;-66
2022/07/16 02:37:10;;;;;;;;;;;;;;;27.48;42.44;99647.66;2060266;28;20067;-66
2022/07/16 02:38:11;;;;;;;;;;;;;;;27.48;42.45;99650.44;2059816;28;19963;-66
2022/07/16 02:39:12;;;;;;;;;;;;;;;27.47;42.59;99652.34;2060454;28;19918;-66
2022/07/16 02:40:13;;;;;;;;;;;;;;;27.47;42.40;99644.06;2059816;28;19960;-65
2022/07/16 02:41:14;;;;;;;;;;;;;;;27.48;42.35;99650.44;2059843;28;19910;-66
2022/07/16 02:42:15;;;;;;;;;;;;;;;27.46;42.45;99652.56;2058750;28;20008;-65
2022/07/16 02:43:15;;;;;;;;;;;;;;;27.47;42.64;99648.75;2059258;28;19932;-66
2022/07/16 02:44:15;;;;;;;;;;;;;;;27.46;42.57;99647.88;2060863;28;19917;-66
2022/07/16 02:45:16;;;;;;;;;;;;;;;27.47;42.40;99649.59;2059045;28;19917;-65
2022/07/16 02:46:16;;;;;;;;;;;;;;;27.48;42.57;99647.66;2060469;28;19928;-66
2022/07/16 02:47:16;;;;;;;;;;;;;;;27.46;42.63;99641.47;2065614;28;19971;-66
2022/07/16 02:48:17;;;;;;;;;;;;;;;27.47;42.38;99643.22;2066799;28;19917;-66
2022/07/16 02:49:17;;;;;;;;;;;;;;;27.48;42.64;99639.34;2060167;28;19921;-66
2022/07/16 02:50:17;;;;;;;;;;;;;;;27.48;42.57;99644.88;2065005;28;19922;-65
2022/07/16 02:51:18;;;;;;;;;;;;;;;27.48;42.51;99644.88;2065176;28;19921;-66
2022/07/16 02:52:18;;;;;;;;;;;;;;;27.46;42.59;99647.88;2064302;28;19909;-66
2022/07/16 02:53:18;;;;;;;;;;;;;;;27.48;42.66;99644.88;2065655;28;19924;-65
2022/07/16 02:54:18;;;;;;;;;;;;;;;27.47;42.57;99637.66;2066257;28;19917;-66
2022/07/16 02:55:19;;;;;;;;;;;;;;;27.48;42.47;99642.13;2059997;28;19955;-66
2022/07/16 02:56:19;;;;;;;;;;;;;;;27.47;42.52;99648.75;2063175;28;20120;-66
2022/07/16 02:57:19;;;;;;;;;;;;;;;27.48;42.49;99650.44;2059720;28;19955;-66
2022/07/16 02:58:20;;;;;;;;;;;;;;;27.48;42.75;99644.88;2065900;28;19967;-66
2022/07/16 02:59:20;;;;;;;;;;;;;;;27.47;42.76;99643.22;2066327;28;19968;-66
2022/07/16 03:00:20;;;;;;;;;;;;;;;27.47;42.69;99648.75;2067951;28;20128;-66
2022/07/16 03:01:20;;;;;;;;;;;;;;;27.48;42.66;99650.44;2065125;28;20604;-66
2022/07/16 03:02:21;;;;;;;;;;;;;;;27.47;42.70;99652.34;2066574;28;20759;-66
2022/07/16 03:03:21;;;;;;;;;;;;;;;27.48;42.70;99644.88;2067128;28;20376;-66
2022/07/16 03:04:21;;;;;;;;;;;;;;;27.46;42.92;99647.03;2067596;28;20615;-65
2022/07/16 03:05:22;;;;;;;;;;;;;;;27.47;42.69;99645.97;2066183;28;19939;-66
2022/07/16 03:06:22;;;;;;;;;;;;;;;27.47;42.72;99643.22;2065598;28;20365;-66
2022/07/16 03:07:22;;;;;;;;;;;;;;;27.47;42.81;99640.44;2067201;28;19991;-66
2022/07/16 03:08:22;;;;;;;;;;;;;;;27.45;42.59;99634.25;2067436;28;19924;-66
2022/07/16 03:09:23;;;;;;;;;;;;;;;27.46;42.75;99633.19;2068083;28;19925;-66
2022/07/16 03:10:23;;;;;;;;;;;;;;;27.47;42.88;99640.44;2067152;28;20661;-66
2022/07/16 03:11:23;;;;;;;;;;;;;;;27.45;42.63;99628.72;2067417;28;19917;-66
2022/07/16 03:12:24;;;;;;;;;;;;;;;27.46;42.88;99630.41;2069101;28;20625;-66
2022/07/16 03:13:24;;;;;;;;;;;;;;;27.46;42.72;99624.88;2067211;28;20285;-66
2022/07/16 03:14:25;;;;;;;;;;;;;;;27.45;42.77;99635.09;2066261;28;19924;-65
2022/07/16 03:15:25;;;;;;;;;;;;;;;27.44;42.84;99633.41;2067466;28;20388;-66
2022/07/16 03:16:25;;;;;;;;;;;;;;;27.44;42.93;99632.53;2063997;28;20196;-65
2022/07/16 03:17:25;;;;;;;;;;;;;;;27.44;42.87;99629.78;2067650;28;19956;-66
2022/07/16 03:18:26;;;;;;;;;;;;;;;27.43;42.89;99630.84;2068272;28;19936;-66
2022/07/16 03:19:26;;;;;;;;;;;;;;;27.43;42.85;99630.84;2064527;28;19921;-66
2022/07/16 03:20:26;;;;;;;;;;;;;;;27.42;42.68;99629.16;2067926;28;19909;-66
2022/07/16 03:21:27;;;;;;;;;;;;;;;27.43;42.58;99636.38;2068104;28;20334;-66
2022/07/16 03:22:27;;;;;;;;;;;;;;;27.42;42.54;99629.16;2066314;28;19910;-66
2022/07/16 03:23:27;;;;;;;;;;;;;;;27.42;42.51;99629.16;2063311;28;20299;-65
2022/07/16 03:24:28;;;;;;;;;;;;;;;27.42;42.61;99629.16;2068171;28;19909;-66
2022/07/16 03:25:29;;;;;;;;;;;;;;;27.42;42.46;99631.94;2067078;28;19935;-65
2022/07/16 03:26:29;;;;;;;;;;;;;;;27.41;42.61;99627.44;2068191;28;20364;-66
2022/07/16 03:27:29;;;;;;;;;;;;;;;27.41;42.73;99628.28;2065200;28;19910;-66
2022/07/16 03:28:29;;;;;;;;;;;;;;;27.41;42.55;99628.28;2066833;28;19913;-66
2022/07/16 03:29:30;;;;;;;;;;;;;;;27.42;42.65;99634.69;2072500;28;20762;-66
2022/07/16 03:30:30;;;;;;;;;;;;;;;27.42;42.40;99640.25;2068441;28;20594;-66
2022/07/16 03:31:30;;;;;;;;;;;;;;;27.42;42.54;99640.25;2065768;28;20857;-66
2022/07/16 03:32:30;;;;;;;;;;;;;;;27.42;42.66;99637.47;2068972;28;19909;-66
2022/07/16 03:33:31;;;;;;;;;;;;;;;27.42;42.51;99634.69;2067387;28;20488;-66
2022/07/16 03:34:32;;;;;;;;;;;;;;;27.42;42.50;99634.69;2066045;28;19930;-65
2022/07/16 03:35:32;;;;;;;;;;;;;;;27.41;42.61;99632.97;2068876;28;19927;-65
2022/07/16 03:36:33;;;;;;;;;;;;;;;27.42;42.68;99634.69;2071459;28;19927;-66
2022/07/16 03:37:33;;;;;;;;;;;;;;;27.42;42.55;99631.94;2073069;28;19990;-66
2022/07/16 03:39:52;;;;;;;;;;;;;;;27.41;42.80;99639.34;2069169;28;19913;-66
2022/07/16 03:40:53;;;;;;;;;;;;;;;27.43;42.73;99634.47;2073983;28;19920;-66
2022/07/16 03:41:53;;;;;;;;;;;;;;;27.42;42.48;99637.47;2074046;28;19923;-66
2022/07/16 03:42:53;;;;;;;;;;;;;;;27.42;42.71;99640.25;2068733;28;20032;-66
2022/07/16 03:43:53;;;;;;;;;;;;;;;27.42;42.79;99645.78;2075747;28;19916;-65
2022/07/16 03:44:54;;;;;;;;;;;;;;;27.42;42.62;99640.25;2070437;28;19924;-65
2022/07/16 03:45:54;;;;;;;;;;;;;;;27.41;42.72;99639.34;2066674;28;20530;-66
2022/07/16 03:46:54;;;;;;;;;;;;;;;27.41;42.52;99636.59;2077092;28;20728;-66
2022/07/16 03:47:55;;;;;;;;;;;;;;;27.41;42.83;99636.59;2071745;28;19924;-66
2022/07/16 03:48:56;;;;;;;;;;;;;;;27.41;42.74;99646.81;2074161;28;19909;-65
2022/07/16 03:49:56;;;;;;;;;;;;;;;27.42;42.75;99640.25;2069053;28;19932;-66
2022/07/16 03:50:56;;;;;;;;;;;;;;;27.42;42.66;99637.47;2067420;28;19940;-66
2022/07/16 03:51:57;;;;;;;;;;;;;;;27.41;42.71;99644.06;2076384;28;19955;-66
2022/07/16 03:52:57;;;;;;;;;;;;;;;27.41;42.68;99638.53;2068954;28;19909;-66
2022/07/16 03:53:58;;;;;;;;;;;;;;;27.40;42.56;99634.06;2071739;28;19948;-66
2022/07/16 03:54:58;;;;;;;;;;;;;;;27.40;42.70;99634.91;2071622;28;20372;-66
2022/07/16 03:55:58;;;;;;;;;;;;;;;27.41;42.62;99644.06;2071088;28;20371;-66
2022/07/16 03:56:58;;;;;;;;;;;;;;;27.40;42.63;99636.81;2068459;28;20399;-65
2022/07/16 03:57:59;;;;;;;;;;;;;;;27.41;42.48;99644.06;2069689;28;20372;-66
2022/07/16 03:58:59;;;;;;;;;;;;;;;27.39;42.81;99647.06;2064790;28;20008;-66
2022/07/16 03:59:59;;;;;;;;;;;;;;;27.39;42.73;99649.81;2075189;28;20000;-66
2022/07/16 04:01:00;;;;;;;;;;;;;;;27.39;42.70;99649.81;2070187;28;19910;-66
2022/07/16 04:02:00;;;;;;;;;;;;;;;27.39;42.75;99652.59;2077416;28;20006;-65
2022/07/16 04:03:00;;;;;;;;;;;;;;;27.39;42.50;99651.72;2069810;28;20402;-66
2022/07/16 04:04:00;;;;;;;;;;;;;;;27.39;42.67;99657.25;2070722;28;19976;-65
2022/07/16 04:05:01;;;;;;;;;;;;;;;27.40;42.60;99656.19;2076681;28;19970;-66
2022/07/16 04:06:02;;;;;;;;;;;;;;;27.38;42.66;99659.19;2068917;28;20397;-66
2022/07/16 04:07:02;;;;;;;;;;;;;;;27.38;42.41;99663.88;2067379;28;19921;-65
2022/07/16 04:08:03;;;;;;;;;;;;;;;27.38;42.41;99661.09;2066941;28;20007;-65
2022/07/16 04:09:03;;;;;;;;;;;;;;;27.36;42.42;99662.19;2066162;28;20360;-65
2022/07/16 04:10:04;;;;;;;;;;;;;;;27.38;42.41;99666.63;2067747;28;19921;-66
2022/07/16 04:11:04;;;;;;;;;;;;;;;27.38;42.57;99661.09;2066279;28;20057;-66
2022/07/16 04:12:04;;;;;;;;;;;;;;;27.38;42.48;99663.88;2065231;28;20731;-66
2022/07/16 04:13:05;;;;;;;;;;;;;;;27.36;42.48;99659.41;2066467;28;20742;-66
2022/07/16 04:14:05;;;;;;;;;;;;;;;27.36;42.56;99653.88;2066831;28;19917;-65
2022/07/16 04:15:05;;;;;;;;;;;;;;;27.38;42.70;99666.63;2071354;28;19924;-66
2022/07/16 04:16:08;;;;;;;;;;;;;;;27.36;42.50;99664.06;2071208;28;20183;-66
2022/07/16 04:17:09;;;;;;;;;;;;;;;27.38;42.54;99661.94;2065178;28;19925;-65
2022/07/16 04:18:09;;;;;;;;;;;;;;;27.36;42.47;99653.88;2072416;28;19975;-66
2022/07/16 04:19:09;;;;;;;;;;;;;;;27.36;42.51;99661.31;2066166;28;19924;-66
2022/07/16 04:20:10;;;;;;;;;;;;;;;27.38;42.49;99666.63;2065543;28;19929;-66
2022/07/16 04:21:10;;;;;;;;;;;;;;;27.38;42.27;99666.63;2071550;28;19927;-66
2022/07/16 04:22:10;;;;;;;;;;;;;;;27.38;42.56;99672.16;2063750;28;19917;-66
2022/07/16 04:23:11;;;;;;;;;;;;;;;27.38;42.60;99669.41;2068333;28;19917;-65
2022/07/16 04:24:11;;;;;;;;;;;;;;;27.38;42.65;99666.63;2068872;28;20130;-66
2022/07/16 04:25:14;;;;;;;;;;;;;;;27.38;42.67;99666.63;2068346;28;19960;-65
2022/07/16 04:26:14;;;;;;;;;;;;;;;27.38;42.41;99669.41;2069944;28;19917;-66
2022/07/16 04:27:15;;;;;;;;;;;;;;;27.38;42.43;99669.41;2073432;28;20015;-66
2022/07/16 04:28:15;;;;;;;;;;;;;;;27.36;42.62;99664.06;2067019;28;19992;-66
2022/07/16 04:29:15;;;;;;;;;;;;;;;27.36;42.51;99659.41;2073709;28;20809;-66
2022/07/16 04:30:16;;;;;;;;;;;;;;;27.36;42.76;99670.47;2061002;28;19971;-66
2022/07/16 04:31:16;;;;;;;;;;;;;;;27.36;42.62;99664.94;2065204;28;19925;-66
2022/07/16 04:32:16;;;;;;;;;;;;;;;27.36;42.64;99670.47;2060383;28;19925;-66
2022/07/16 04:33:17;;;;;;;;;;;;;;;27.36;42.56;99667.72;2062958;28;20464;-66
2022/07/16 04:34:17;;;;;;;;;;;;;;;27.36;42.62;99664.94;2060243;28;19921;-66
2022/07/16 04:35:18;;;;;;;;;;;;;;;27.36;42.51;99664.94;2067570;28;19921;-66
2022/07/16 04:36:18;;;;;;;;;;;;;;;27.36;42.54;99675.13;2066887;28;19979;-66
2022/07/16 04:37:19;;;;;;;;;;;;;;;27.36;42.57;99675.13;2068225;28;19925;-65
2022/07/16 04:38:19;;;;;;;;;;;;;;;27.35;42.40;99663.22;2065954;28;19916;-66
2022/07/16 04:39:20;;;;;;;;;;;;;;;27.36;42.67;99673.25;2066223;28;20035;-66
2022/07/16 04:40:20;;;;;;;;;;;;;;;27.36;42.52;99664.06;2061481;28;19921;-65
2022/07/16 04:41:20;;;;;;;;;;;;;;;27.35;42.48;99668.75;2062531;28;20067;-66
2022/07/16 04:42:21;;;;;;;;;;;;;;;27.34;42.59;99669.84;2067605;28;20012;-65
2022/07/16 04:43:21;;;;;;;;;;;;;;;27.34;42.65;99678.13;2066953;28;19917;-66
2022/07/16 04:44:21;;;;;;;;;;;;;;;27.33;42.52;99668.13;2066818;28;19928;-66
2022/07/16 04:45:21;;;;;;;;;;;;;;;27.34;42.38;99663.44;2064084;28;19943;-66
2022/07/16 04:46:22;;;;;;;;;;;;;;;27.34;42.45;99666.19;2064954;28;19925;-66
2022/07/16 04:47:22;;;;;;;;;;;;;;;27.33;42.66;99670.03;2067485;28;19917;-66
2022/07/16 04:48:22;;;;;;;;;;;;;;;27.33;42.60;99668.13;2066670;28;19917;-66
2022/07/16 04:49:23;;;;;;;;;;;;;;;27.32;42.42;99666.44;2066364;28;20011;-66
2022/07/16 04:50:23;;;;;;;;;;;;;;;27.32;42.62;99669.19;2068302;28;19964;-65
2022/07/16 04:51:23;;;;;;;;;;;;;;;27.33;42.48;99672.81;2066405;28;19917;-66
2022/07/16 04:52:24;;;;;;;;;;;;;;;27.32;42.42;99666.44;2066912;28;19929;-66
2022/07/16 04:53:24;;;;;;;;;;;;;;;27.32;42.65;99671.97;2067282;28;19917;-66
2022/07/16 04:54:24;;;;;;;;;;;;;;;27.32;42.60;99671.97;2063931;28;19921;-66
2022/07/16 04:55:24;;;;;;;;;;;;;;;27.31;42.56;99667.47;2068201;28;20019;-66
2022/07/16 04:56:25;;;;;;;;;;;;;;;27.32;42.53;99663.66;2065810;28;19965;-66
2022/07/16 04:57:25;;;;;;;;;;;;;;;27.31;42.59;99670.25;2059586;28;19932;-66
2022/07/16 04:58:25;;;;;;;;;;;;;;;27.32;42.59;99669.19;2068023;28;20384;-66
2022/07/16 04:59:26;;;;;;;;;;;;;;;27.32;42.50;99665.59;2066657;28;19917;-66
2022/07/16 05:00:26;;;;;;;;;;;;;;;27.33;42.42;99664.50;2068280;28;19924;-66
2022/07/16 05:01:26;;;;;;;;;;;;;;;27.32;42.58;99663.66;2067220;28;19909;-66
2022/07/16 05:03:45;;;;;;;;;;;;;;;27.33;42.65;99659.81;2066790;28;20384;-66
2022/07/16 05:04:46;;;;;;;;;;;;;;;27.33;42.52;99664.50;2067741;28;20594;-66
2022/07/16 05:05:46;;;;;;;;;;;;;;;27.33;42.74;99659.81;2064124;28;19918;-66
2022/07/16 05:06:46;;;;;;;;;;;;;;;27.32;42.60;99658.13;2068092;28;19917;-65
2022/07/16 05:07:47;;;;;;;;;;;;;;;27.32;42.67;99663.66;2061814;28;19917;-66
2022/07/16 05:08:47;;;;;;;;;;;;;;;27.33;42.68;99658.97;2065981;28;19988;-66
2022/07/16 05:09:47;;;;;;;;;;;;;;;27.33;42.87;99653.44;2059332;28;19948;-65
2022/07/16 05:10:48;;;;;;;;;;;;;;;27.32;42.72;99660.06;2064136;28;19921;-66
2022/07/16 05:11:48;;;;;;;;;;;;;;;27.32;42.81;99663.66;2062377;28;20558;-66
2022/07/16 05:12:48;;;;;;;;;;;;;;;27.33;42.66;99659.81;2065811;28;20384;-66
2022/07/16 05:13:51;;;;;;;;;;;;;;;27.32;42.67;99658.13;2063720;28;19975;-66
2022/07/16 05:14:51;;;;;;;;;;;;;;;27.32;42.83;99651.75;2061446;28;19924;-66
2022/07/16 05:15:51;;;;;;;;;;;;;;;27.32;42.53;99652.59;2062817;28;19917;-65
2022/07/16 05:16:51;;;;;;;;;;;;;;;27.32;42.85;99651.75;2065657;28;19972;-65
2022/07/16 05:17:52;;;;;;;;;;;;;;;27.31;42.87;99650.88;2065055;28;19921;-65
2022/07/16 05:18:52;;;;;;;;;;;;;;;27.32;42.53;99658.13;2065355;28;19953;-66
2022/07/16 05:19:52;;;;;;;;;;;;;;;27.31;42.85;99664.72;2067466;28;19944;-66